Flight Track Log - Related Links

Times and Time Zones

All times are in EDT time to prevent confusion due to time zone crossing. See the SWA1451 flight status page for this flight to view local times or setup timezone preferences in your user account.


Time Position Orientation Groundspeed Altitude Reporting Facility
EDT Latitude Longitude Course Direction KTS MPH feet Rate Location/Type
Thu 10:38:04 AM 39.8333 -104.7667 210° Southwest 179 206 7,200  Level Denver TRACON
Thu 10:40:14 AM 39.6917 -104.8489 204° Southwest 303 349 12,600 2,688 Climbing Denver Center
Thu 10:41:16 AM 39.5997 -104.8856 197° South 348 400 15,800 3,097 Climbing Denver Center
Thu 10:42:18 AM 39.4919 -104.9264 196° South 372 428 19,000 2,710 Climbing Denver Center
Thu 10:43:00 AM 39.5023 -104.4858 210° Southwest  Level FlightAware Approximate
Thu 10:43:20 AM 39.3869 -104.9686 197° South 396 456 21,400  Level Denver Center
Thu 10:44:22 AM 39.2733 -105.0092 195° South 422 486 23,900 2,274 Climbing Denver Center
Thu 10:45:24 AM 39.1469 -105.0622 198° South 447 514 26,100 1,887 Climbing Denver Center
Thu 10:46:26 AM 39.0394 -105.1289 206° Southwest 457 526 27,800 1,694 Climbing Denver Center
Thu 10:47:28 AM 38.9056 -105.2136 206° Southwest 479 551 29,600 1,742 Climbing Denver Center
Thu 10:48:30 AM 38.7906 -105.2861 206° Southwest 480 552 31,400 2,710 Climbing Denver Center
Thu 10:49:32 AM 38.6569 -105.3722 207° Southwest 482 555 35,200 2,029 Climbing Denver Center
Thu 10:50:46 AM 38.5511 -105.4392 206° Southwest 456 525 36,000 350 Climbing Denver Center
Thu 10:51:49 AM 38.4100 -105.5281 206° Southwest 445 512 36,000  Level Denver Center
Thu 10:52:51 AM 38.2833 -105.6083 206° Southwest 452 520 36,000 677 Level Denver Center
Thu 10:53:53 AM 38.1739 -105.6769 206° Southwest 457 526 37,400 968 Climbing Denver Center
Thu 10:54:55 AM 38.0456 -105.7564 206° Southwest 457 526 38,000 290 Climbing Denver Center
Thu 10:55:57 AM 37.9542 -105.8503 219° Southwest 443 510 38,000  Level Denver Center
Thu 10:56:59 AM 37.8592 -105.9719 225° Southwest 436 502 38,000  Level Denver Center
Thu 10:58:01 AM 37.7769 -106.0756 225° Southwest 437 503 38,000  Level Denver Center
Thu 10:59:03 AM 37.6894 -106.1878 225° Southwest 433 498 38,000  Level Denver Center
Thu 11:00:05 AM 37.6081 -106.2881 224° Southwest 428 493 38,000  Level Denver Center
Thu 11:01:07 AM 37.5161 -106.4064 226° Southwest 424 488 38,000  Level Denver Center
Thu 11:02:09 AM 37.4369 -106.5050 225° Southwest 419 482 38,000  Level Denver Center
Thu 11:03:11 AM 37.3450 -106.6217 225° Southwest 419 482 38,000  Level Denver Center
Thu 11:04:13 AM 37.2642 -106.7214 224° Southwest 424 488 38,000  Level Denver Center
Thu 11:05:15 AM 37.1714 -106.8369 225° Southwest 420 483 38,000  Level Denver Center
Thu 11:06:17 AM 37.0914 -106.9369 225° Southwest 423 487 38,000  Level Denver Center
Thu 11:07:19 AM 36.9975 -107.0517 224° Southwest 423 487 38,000  Level Denver Center
Thu 11:08:21 AM 36.9175 -107.1497 224° Southwest 422 486 38,000  Level Denver Center
Thu 11:09:23 AM 36.8247 -107.2647 225° Southwest 420 483 38,000  Level Denver Center
Thu 11:10:25 AM 36.7444 -107.3617 224° Southwest 419 482 38,000  Level Denver Center
Thu 11:11:27 AM 36.6522 -107.4756 225° Southwest 417 480 38,000  Level Denver Center
Thu 11:12:29 AM 36.5708 -107.5736 224° Southwest 423 487 38,000  Level Denver Center
Thu 11:13:32 AM 36.4897 -107.6711 224° Southwest 424 488 38,000  Level Denver Center
Thu 11:14:34 AM 36.3964 -107.7844 224° Southwest 421 484 38,000  Level Denver Center
Thu 11:15:04 AM 36.3550 -107.8358 225° Southwest 424 488 38,000  Level Albuquerque Center
Thu 11:15:36 AM 36.3144 -107.8831 223° Southwest 425 489 38,000  Level Denver Center
Thu 11:16:38 AM 36.2194 -107.9964 224° Southwest 423 487 38,000  Level Denver Center
Thu 11:17:40 AM 36.1392 -108.0936 224° Southwest 423 487 38,000  Level Denver Center
Thu 11:18:10 AM 36.0975 -108.1431 224° Southwest 423 487 38,000  Level Albuquerque Center
Thu 11:19:12 AM 36.0028 -108.2564 224° Southwest 423 487 38,000  Level Albuquerque Center
Thu 11:20:46 AM 35.8661 -108.4156 223° Southwest 422 486 38,000  Level Denver Center
Thu 11:21:16 AM 35.8264 -108.4650 225° Southwest 421 484 38,000  Level Albuquerque Center
Thu 11:22:18 AM 35.7450 -108.5597 223° Southwest 419 482 38,000  Level Albuquerque Center
Thu 11:23:20 AM 35.6494 -108.6706 223° Southwest 419 482 38,000  Level Albuquerque Center
Thu 11:24:54 AM 35.5261 -108.8139 223° Southwest 420 483 38,000  Level Denver Center
Thu 11:25:25 AM 35.4869 -108.8611 224° Southwest 419 482 38,000  Level Albuquerque Center
Thu 11:26:27 AM 35.3969 -108.9756 226° Southwest 416 479 38,000  Level Albuquerque Center
Thu 11:27:29 AM 35.3219 -109.0736 227° Southwest 413 475 38,000  Level Albuquerque Center
Thu 11:28:31 AM 35.2331 -109.1897 227° Southwest 416 479 38,000  Level Albuquerque Center
Thu 11:29:33 AM 35.1569 -109.2878 227° Southwest 414 476 38,000 -145 Level Albuquerque Center
Thu 11:30:35 AM 35.0675 -109.3992 226° Southwest 412 474 37,700 -581 Descending Albuquerque Center
Thu 11:31:37 AM 34.9897 -109.4967 226° Southwest 414 476 36,800 -823 Descending Albuquerque Center
Thu 11:32:39 AM 34.8967 -109.6142 226° Southwest 426 490 36,000 -387 Descending Albuquerque Center
Thu 11:33:41 AM 34.8181 -109.7128 226° Southwest 425 489 36,000  Level Albuquerque Center
Thu 11:34:43 AM 34.7286 -109.8317 228° Southwest 426 490 36,000  Level Albuquerque Center
Thu 11:35:45 AM 34.6756 -109.9478 241° Southwest 409 471 36,000  Level Albuquerque Center
Thu 11:36:47 AM 34.6242 -110.0847 246° West 404 465 36,000  Level Albuquerque Center
Thu 11:37:49 AM 34.5789 -110.2044 245° Southwest 405 466 36,000 -629 Level Albuquerque Center
Thu 11:38:51 AM 34.5272 -110.3433 246° West 404 465 34,700 -1,452 Descending Albuquerque Center
Thu 11:39:53 AM 34.4825 -110.4619 245° Southwest 403 464 33,000 -1,694 Descending Albuquerque Center
Thu 11:40:55 AM 34.4369 -110.5817 245° Southwest 407 468 31,200 -1,984 Descending Albuquerque Center
Thu 11:41:57 AM 34.3847 -110.7175 245° Southwest 402 463 28,900 -2,081 Descending Albuquerque Center
Thu 11:42:59 AM 34.3292 -110.8286 239° Southwest 387 445 26,900 -1,935 Descending Albuquerque Center
Thu 11:44:01 AM 34.2569 -110.9228 227° Southwest 387 445 24,900 -1,887 Descending Albuquerque Center
Thu 11:45:03 AM 34.1853 -111.0139 226° Southwest 382 440 23,000 -1,935 Descending Albuquerque Center
Thu 11:46:05 AM 34.1081 -111.1147 227° Southwest 370 426 20,900 -1,887 Descending Albuquerque Center
Thu 11:47:07 AM 34.0394 -111.2011 226° Southwest 361 415 19,100 -1,790 Descending Albuquerque Center
Thu 11:48:09 AM 33.9628 -111.2992 227° Southwest 359 413 17,200 -1,742 Descending Albuquerque Center
Thu 11:49:11 AM 33.8961 -111.3844 227° Southwest 351 404 15,500 -1,500 Descending Albuquerque Center
Thu 11:50:13 AM 33.8403 -111.4792 235° Southwest 321 369 14,100 -1,452 Descending Albuquerque Center
Thu 11:51:15 AM 33.7936 -111.5686 238° Southwest 317 365 12,500 -1,597 Descending Albuquerque Center
Thu 11:52:17 AM 33.7472 -111.6569 238° Southwest 314 361 10,800 -1,210 Descending Albuquerque Center
Thu 11:53:19 AM 33.6994 -111.7469 237° Southwest 297 342 10,000 -387 Descending Albuquerque Center
Thu 11:54:21 AM 33.6619 -111.8147 236° Southwest 247 284 10,000 -242 Level Albuquerque Center
Thu 11:55:23 AM 33.6231 -111.8867 237° Southwest 240 276 9,500 -726 Descending Albuquerque Center
Thu 11:56:25 AM 33.5875 -111.9525 237° Southwest 236 272 8,500 -1,016 Descending Albuquerque Center
Thu 11:57:27 AM 33.5522 -112.0208 238° Southwest 226 260 7,400 -871 Descending Albuquerque Center
Thu 11:58:29 AM 33.5233 -112.0875 243° Southwest 227 261 6,700 -829 Descending Albuquerque Center
Thu 11:59:30 AM 33.5250 -112.1619 272° West 225 259 5,700 -1,171 Descending Albuquerque Center
Thu 12:00:32 PM 33.4775 -112.1986 213° Southwest 214 246 4,300 -1,161 Descending Albuquerque Center
Thu 12:01:34 PM 33.4453 -112.1494 128° Southeast 187 215 3,300 -1,065 Descending Albuquerque Center
Thu 12:02:36 PM 33.4408 -112.0919 95° East 165 190 2,100 -919 Descending Albuquerque Center
Thu 12:03:38 PM 33.4403 -112.0450 91° East 147 169 1,400 -677 Descending Albuquerque Center

Login

Don't have an account? Register now (free) for customized features, flight alerts, and more!